createdAt,value
2022-09-02T00:01:31.473Z,22.80
2022-09-02T00:04:36.406Z,22.78
2022-09-02T00:07:42.913Z,22.79
2022-09-02T00:10:48.429Z,22.81
2022-09-02T00:13:53.758Z,22.78
2022-09-02T00:17:00.904Z,22.73
2022-09-02T00:20:06.841Z,22.72
2022-09-02T00:23:13.900Z,22.75
2022-09-02T00:26:19.614Z,22.77
2022-09-02T00:29:25.166Z,22.73
2022-09-02T00:32:30.797Z,22.74
2022-09-02T00:35:36.021Z,22.69
2022-09-02T00:38:43.177Z,22.67
2022-09-02T00:41:48.715Z,22.67
2022-09-02T00:44:54.185Z,22.67
2022-09-02T00:47:59.456Z,22.65
2022-09-02T00:51:04.575Z,22.65
2022-09-02T00:54:14.496Z,22.66
2022-09-02T00:57:22.239Z,22.63
2022-09-02T01:00:31.265Z,22.59
2022-09-02T01:03:41.178Z,22.58
2022-09-02T01:06:46.723Z,22.60
2022-09-02T01:09:55.314Z,22.61
2022-09-02T01:13:01.789Z,22.60
2022-09-02T01:16:11.858Z,22.61
2022-09-02T01:19:24.001Z,22.56
2022-09-02T01:22:31.873Z,22.55
2022-09-02T01:25:37.029Z,22.56
2022-09-02T01:28:42.086Z,22.53
2022-09-02T01:31:47.858Z,22.46
2022-09-02T01:34:53.694Z,22.39
2022-09-02T01:38:01.620Z,22.35
2022-09-02T01:41:07.208Z,22.34
2022-09-02T01:44:16.288Z,22.31
2022-09-02T01:47:23.131Z,22.31
2022-09-02T01:50:28.769Z,22.31
2022-09-02T01:53:36.128Z,22.30
2022-09-02T01:56:41.170Z,22.35
2022-09-02T01:59:46.423Z,22.37
2022-09-02T02:02:51.897Z,22.39
2022-09-02T02:05:56.880Z,22.40
2022-09-02T02:09:03.513Z,22.41
2022-09-02T02:12:08.897Z,22.42
2022-09-02T02:15:15.742Z,22.45
2022-09-02T02:18:20.984Z,22.48
2022-09-02T02:21:27.432Z,22.48
2022-09-02T02:24:33.914Z,22.50
2022-09-02T02:27:39.180Z,22.50
2022-09-02T02:30:48.660Z,22.51
2022-09-02T02:33:54.327Z,22.53
2022-09-02T02:36:59.656Z,22.56
2022-09-02T02:40:07.727Z,22.65
2022-09-02T02:43:13.384Z,22.72
2022-09-02T02:46:19.289Z,22.78
2022-09-02T02:49:24.405Z,22.84
2022-09-02T02:52:29.404Z,22.87
2022-09-02T02:55:36.503Z,22.89
2022-09-02T02:58:42.250Z,22.93
2022-09-02T03:01:47.359Z,22.98
2022-09-02T03:04:54.333Z,22.98
2022-09-02T03:07:59.607Z,23.02
2022-09-02T03:11:07.208Z,23.02
2022-09-02T03:14:13.413Z,23.07
2022-09-02T03:17:19.035Z,23.02
2022-09-02T03:20:25.216Z,23.06
2022-09-02T03:23:30.841Z,23.06
2022-09-02T03:26:37.488Z,23.08
2022-09-02T03:29:42.809Z,23.11
2022-09-02T03:32:49.017Z,23.09
2022-09-02T03:35:54.536Z,23.11
2022-09-02T03:38:59.641Z,23.07
2022-09-02T03:42:06.922Z,23.14
2022-09-02T03:45:20.852Z,23.15
2022-09-02T03:48:26.176Z,23.16
2022-09-02T03:51:31.840Z,23.20
2022-09-02T03:54:37.120Z,23.23
2022-09-02T03:57:43.931Z,23.22
2022-09-02T04:00:51.473Z,23.21
2022-09-02T04:03:57.664Z,23.20
2022-09-02T04:07:02.862Z,23.21
2022-09-02T04:10:09.024Z,23.20
2022-09-02T04:13:15.610Z,23.19
2022-09-02T04:16:22.762Z,23.20
2022-09-02T04:19:28.282Z,23.15
2022-09-02T04:22:34.304Z,23.23
2022-09-02T04:25:40.793Z,23.31
2022-09-02T04:28:47.541Z,23.33
2022-09-02T04:31:52.935Z,23.32
2022-09-02T04:34:58.339Z,23.31
2022-09-02T04:38:03.303Z,23.31
2022-09-02T04:41:09.319Z,23.38
2022-09-02T04:44:16.325Z,23.52
2022-09-02T04:47:22.598Z,23.59
2022-09-02T04:50:27.913Z,23.74
2022-09-02T04:53:33.038Z,23.97
2022-09-02T04:56:41.569Z,24.15
2022-09-02T04:59:48.208Z,24.13
2022-09-02T05:02:54.982Z,24.28
2022-09-02T05:06:01.370Z,24.40
2022-09-02T05:09:06.212Z,24.63
2022-09-02T05:12:11.685Z,24.86
2022-09-02T05:15:18.713Z,25.06
2022-09-02T05:18:23.992Z,25.20
2022-09-02T05:21:29.219Z,25.35
2022-09-02T05:24:34.939Z,25.58
2022-09-02T05:27:40.443Z,25.71
2022-09-02T05:30:47.085Z,25.97
2022-09-02T05:33:52.542Z,26.07
2022-09-02T05:36:58.125Z,26.20
2022-09-02T05:40:04.316Z,26.24
2022-09-02T05:43:10.705Z,26.54
2022-09-02T05:46:18.776Z,26.66
2022-09-02T05:49:24.208Z,26.60
2022-09-02T05:52:30.101Z,26.61
2022-09-02T05:55:35.616Z,26.68
2022-09-02T05:58:41.278Z,26.78
2022-09-02T06:01:48.699Z,27.04
2022-09-02T06:04:55.258Z,26.94
2022-09-02T06:08:00.777Z,27.00
2022-09-02T06:11:08.727Z,26.96
2022-09-02T06:14:14.587Z,26.94
2022-09-02T06:17:22.294Z,27.16
2022-09-02T06:20:29.300Z,27.16
2022-09-02T06:23:35.745Z,27.16
2022-09-02T06:26:41.404Z,27.13
2022-09-02T06:29:46.622Z,26.93
2022-09-02T06:32:53.010Z,26.77
2022-09-02T06:35:58.393Z,26.70
2022-09-02T06:39:03.826Z,26.56
2022-09-02T06:42:09.174Z,26.49
2022-09-02T06:45:14.780Z,26.48
2022-09-02T06:48:21.207Z,26.79
2022-09-02T06:51:27.350Z,26.72
2022-09-02T06:54:32.501Z,26.85
2022-09-02T06:57:38.295Z,27.01
2022-09-02T07:00:43.725Z,27.31
2022-09-02T07:04:08.058Z,27.46
2022-09-02T07:07:13.737Z,27.61
2022-09-02T07:10:19.252Z,27.82
2022-09-02T07:13:24.742Z,28.09
2022-09-02T07:16:30.807Z,28.21
2022-09-02T07:19:37.749Z,27.86
2022-09-02T07:22:43.274Z,27.52
2022-09-02T07:25:48.711Z,27.40
2022-09-02T07:28:54.233Z,27.92
2022-09-02T07:31:59.619Z,28.13
2022-09-02T07:35:07.241Z,28.27
2022-09-02T07:38:13.138Z,28.28
2022-09-02T07:41:18.817Z,28.07
2022-09-02T07:44:24.981Z,28.02
2022-09-02T07:47:30.953Z,27.86
2022-09-02T07:50:38.990Z,28.01
2022-09-02T07:53:45.168Z,27.97
2022-09-02T07:56:51.101Z,28.16
2022-09-02T07:59:56.333Z,28.16
2022-09-02T08:03:02.109Z,28.28
2022-09-02T08:06:08.872Z,28.33
2022-09-02T08:09:14.956Z,28.47
2022-09-02T08:12:22.337Z,28.35
2022-09-02T08:15:28.836Z,28.59
2022-09-02T08:18:35.025Z,28.28
2022-09-02T08:21:41.578Z,28.16
2022-09-02T08:24:47.048Z,27.83
2022-09-02T08:31:00.955Z,27.47
2022-09-02T08:34:06.746Z,27.34
2022-09-02T08:37:13.452Z,27.36
2022-09-02T08:40:19.586Z,27.14
2022-09-02T08:43:29.261Z,27.31
2022-09-02T08:46:36.067Z,27.48
2022-09-02T08:49:43.198Z,27.89
2022-09-02T08:52:58.638Z,28.61
2022-09-02T08:56:06.001Z,28.49
2022-09-02T08:59:13.133Z,28.46
2022-09-02T09:02:22.661Z,28.22
2022-09-02T09:05:32.280Z,27.81
2022-09-02T09:08:44.776Z,27.80
2022-09-02T09:11:55.852Z,28.37
2022-09-02T09:15:06.095Z,28.35
2022-09-02T09:18:15.074Z,28.30
2022-09-02T09:21:20.524Z,28.21
2022-09-02T09:24:29.372Z,28.49
2022-09-02T09:27:34.827Z,28.26
2022-09-02T09:30:40.373Z,28.26
2022-09-02T09:34:00.844Z,28.15
2022-09-02T09:37:06.048Z,27.98
2022-09-02T09:40:30.605Z,27.77
2022-09-02T09:43:35.777Z,27.80
2022-09-02T09:46:41.067Z,27.45
2022-09-02T09:49:46.344Z,28.12
2022-09-02T09:52:51.495Z,28.26
2022-09-02T09:55:59.277Z,28.05
2022-09-02T09:59:04.599Z,27.51
2022-09-02T10:02:20.209Z,27.85
2022-09-02T10:05:30.975Z,27.78
2022-09-02T10:08:36.379Z,28.07
2022-09-02T10:11:55.944Z,28.02
2022-09-02T10:15:00.843Z,28.10
2022-09-02T10:18:15.470Z,28.01
2022-09-02T10:21:29.294Z,28.26
2022-09-02T10:24:42.887Z,28.03
2022-09-02T10:27:54.188Z,28.13
2022-09-02T10:31:05.757Z,28.02
2022-09-02T10:34:17.292Z,27.91
2022-09-02T10:37:24.393Z,28.10
2022-09-02T10:40:37.689Z,28.23
2022-09-02T10:43:57.359Z,28.07
2022-09-02T10:47:04.894Z,28.33
2022-09-02T10:50:15.111Z,27.90
2022-09-02T10:53:34.284Z,28.12
2022-09-02T10:56:41.564Z,28.11
2022-09-02T10:59:54.005Z,28.17
2022-09-02T11:03:06.711Z,28.30
2022-09-02T11:06:16.050Z,28.58
2022-09-02T11:09:28.516Z,28.55
2022-09-02T11:12:36.105Z,28.41
2022-09-02T11:15:47.616Z,28.07
2022-09-02T11:18:58.100Z,27.50
2022-09-02T11:22:10.610Z,27.43
2022-09-02T11:25:17.304Z,27.60
2022-09-02T11:28:26.985Z,27.81
2022-09-02T11:31:39.098Z,27.58
2022-09-02T11:34:47.174Z,27.34
2022-09-02T11:37:53.758Z,27.10
2022-09-02T11:41:37.179Z,26.99
2022-09-02T11:45:00.887Z,26.80
2022-09-02T11:48:30.381Z,26.85
2022-09-02T11:51:43.902Z,26.85
2022-09-02T11:54:50.375Z,26.68
2022-09-02T11:57:57.706Z,26.41
2022-09-02T12:01:19.083Z,26.19
2022-09-02T12:07:56.764Z,26.53
2022-09-02T12:11:04.898Z,26.68
2022-09-02T12:14:13.835Z,26.54
2022-09-02T12:17:37.886Z,26.50
2022-09-02T12:21:07.807Z,26.43
2022-09-02T12:24:25.168Z,26.62
2022-09-02T12:27:36.766Z,26.50
2022-09-02T12:31:01.725Z,26.62
2022-09-02T12:34:34.024Z,26.61
2022-09-02T12:37:56.052Z,26.65
2022-09-02T12:41:13.517Z,26.30
2022-09-02T12:44:30.504Z,26.17
2022-09-02T12:47:45.213Z,26.22
2022-09-02T12:50:56.055Z,26.30
2022-09-02T12:54:02.725Z,26.25
2022-09-02T12:57:10.216Z,26.55
2022-09-02T13:00:17.083Z,26.69
2022-09-02T13:03:34.973Z,26.63
2022-09-02T13:06:47.325Z,26.41
2022-09-02T13:10:07.794Z,26.52
2022-09-02T13:13:30.713Z,26.43
2022-09-02T13:16:46.094Z,26.39
2022-09-02T13:20:06.070Z,26.37
2022-09-02T13:23:31.735Z,26.46
2022-09-02T13:26:52.285Z,26.55
2022-09-02T13:30:08.656Z,26.45
2022-09-02T13:33:15.282Z,26.59
2022-09-02T13:36:25.429Z,26.71
2022-09-02T13:39:31.119Z,26.59
2022-09-02T13:42:37.316Z,26.60
2022-09-02T13:45:43.100Z,26.45
2022-09-02T13:48:49.609Z,26.28
2022-09-02T13:51:56.671Z,26.19
2022-09-02T13:55:01.882Z,26.26
2022-09-02T13:58:08.895Z,26.35
2022-09-02T14:01:29.009Z,26.28
2022-09-02T14:04:36.468Z,26.07
2022-09-02T14:07:43.277Z,25.91
2022-09-02T14:10:49.361Z,25.74
2022-09-02T14:13:54.866Z,25.63
2022-09-02T14:17:14.973Z,25.53
2022-09-02T14:20:23.390Z,25.49
2022-09-02T14:23:29.831Z,25.32
2022-09-02T14:26:37.676Z,25.26
2022-09-02T14:29:45.328Z,25.20
2022-09-02T14:32:50.777Z,25.09
2022-09-02T14:35:58.328Z,25.01
2022-09-02T14:39:12.324Z,24.80
2022-09-02T14:42:17.557Z,24.91
2022-09-02T14:45:27.497Z,24.96
2022-09-02T14:48:37.323Z,24.94
2022-09-02T14:51:46.870Z,25.02
2022-09-02T14:54:52.937Z,25.05
2022-09-02T14:58:02.578Z,25.09
2022-09-02T15:01:09.674Z,25.08
2022-09-02T15:04:15.795Z,25.17
2022-09-02T15:07:22.686Z,25.14
2022-09-02T15:10:28.015Z,24.99
2022-09-02T15:13:34.954Z,24.93
2022-09-02T15:16:40.758Z,24.82
2022-09-02T15:19:46.041Z,24.56
2022-09-02T15:22:53.317Z,24.52
2022-09-02T15:25:58.873Z,24.39
2022-09-02T15:29:04.517Z,24.49
2022-09-02T15:32:09.765Z,24.49
2022-09-02T15:35:15.136Z,24.51
2022-09-02T15:38:21.708Z,24.48
2022-09-02T15:41:28.963Z,24.53
2022-09-02T15:44:34.505Z,24.46
2022-09-02T15:47:39.791Z,24.40
2022-09-02T15:50:46.492Z,24.34
2022-09-02T15:53:56.811Z,24.14
2022-09-02T15:57:02.066Z,24.12
2022-09-02T16:00:09.676Z,24.15
2022-09-02T16:03:53.919Z,24.03
2022-09-02T16:07:04.207Z,24.06
2022-09-02T16:10:11.690Z,24.10
2022-09-02T16:13:16.700Z,24.05
2022-09-02T16:16:22.696Z,24.00
2022-09-02T16:19:30.343Z,23.85
2022-09-02T16:22:36.421Z,23.96
2022-09-02T16:25:45.470Z,23.92
2022-09-02T16:28:51.540Z,23.97
2022-09-02T16:32:14.451Z,23.96
2022-09-02T16:35:22.565Z,23.92
2022-09-02T16:38:28.025Z,23.86
2022-09-02T16:41:35.471Z,23.86
2022-09-02T16:44:41.617Z,23.86
2022-09-02T16:47:46.868Z,23.88
2022-09-02T16:50:52.432Z,23.90
2022-09-02T16:53:58.247Z,23.83
2022-09-02T16:57:06.294Z,23.73
2022-09-02T17:00:12.603Z,23.55
2022-09-02T17:03:18.034Z,23.32
2022-09-02T17:06:23.425Z,23.32
2022-09-02T17:09:28.404Z,23.38
2022-09-02T17:12:38.526Z,23.42
2022-09-02T17:15:47.488Z,23.52
2022-09-02T17:18:53.729Z,23.59
2022-09-02T17:21:59.043Z,23.63
2022-09-02T17:25:04.842Z,23.69
2022-09-02T17:28:11.737Z,23.72
2022-09-02T17:31:21.353Z,23.75
2022-09-02T17:34:26.871Z,23.76
2022-09-02T17:37:35.121Z,23.78
2022-09-02T17:40:57.528Z,23.82
2022-09-02T17:44:04.224Z,23.89
2022-09-02T17:47:11.474Z,23.97
2022-09-02T17:50:18.069Z,24.00
2022-09-02T17:53:23.753Z,24.02
2022-09-02T17:56:36.334Z,23.99
2022-09-02T17:59:59.240Z,23.89
2022-09-02T18:03:25.618Z,23.88
2022-09-02T18:06:33.976Z,23.62
2022-09-02T18:09:40.375Z,22.62
2022-09-02T18:12:46.044Z,-143.72
2022-09-02T18:15:57.677Z,-143.72
2022-09-02T18:20:03.930Z,-143.72
2022-09-02T18:24:14.733Z,-143.72
2022-09-02T18:28:26.294Z,-143.72
2022-09-02T18:32:42.076Z,-143.72
2022-09-02T18:36:26.944Z,-143.72
2022-09-02T18:40:37.729Z,-143.72
2022-09-02T18:44:01.114Z,-143.72
2022-09-02T18:48:09.522Z,-143.72
2022-09-02T18:52:14.441Z,-143.72
2022-09-02T18:55:20.236Z,-143.72
2022-09-02T18:58:34.363Z,-143.72
2022-09-02T19:01:43.871Z,-143.72
2022-09-02T19:04:50.930Z,-143.72
2022-09-02T19:08:33.179Z,-143.72
2022-09-02T19:11:47.229Z,-143.72
2022-09-02T19:14:52.733Z,-143.72
2022-09-02T19:18:03.965Z,-143.72
2022-09-02T19:21:19.081Z,-143.72
2022-09-02T19:24:34.353Z,-143.72
2022-09-02T19:27:43.281Z,-143.72
2022-09-02T19:30:50.986Z,-143.72
2022-09-02T19:34:04.833Z,-143.72
2022-09-02T19:37:15.555Z,-143.72
2022-09-02T19:40:26.376Z,-143.72
2022-09-02T19:43:32.022Z,-143.72
2022-09-02T19:47:30.682Z,-143.72
2022-09-02T19:50:13.888Z,-143.72
2022-09-02T19:53:30.275Z,-143.72
2022-09-02T19:56:36.126Z,-143.72
2022-09-02T19:59:41.397Z,-143.72
2022-09-02T20:02:46.888Z,-143.72
2022-09-02T20:05:52.887Z,-143.72
2022-09-02T20:08:59.716Z,-143.72
2022-09-02T20:12:06.360Z,-143.72
2022-09-02T20:15:11.873Z,-143.72
2022-09-02T20:18:22.372Z,-143.72
2022-09-02T20:21:28.534Z,-143.72
2022-09-02T20:24:35.918Z,-143.72
2022-09-02T20:27:48.528Z,-143.72
2022-09-02T20:30:58.759Z,-143.72
2022-09-02T20:34:14.129Z,-143.72
2022-09-02T20:37:26.688Z,-143.72
2022-09-02T20:40:37.845Z,-143.72
2022-09-02T20:43:52.985Z,-143.72
2022-09-02T20:47:24.335Z,-143.72
2022-09-02T20:50:36.502Z,-143.72
2022-09-02T20:53:51.048Z,-143.72
2022-09-02T20:57:05.792Z,23.86
2022-09-02T21:00:12.276Z,23.90
2022-09-02T21:03:17.995Z,24.08
2022-09-02T21:06:26.859Z,23.99
2022-09-02T21:09:38.613Z,23.89
2022-09-02T21:12:46.880Z,23.95
2022-09-02T21:15:54.978Z,24.02
2022-09-02T21:19:12.317Z,24.09
2022-09-02T21:22:21.261Z,24.20
2022-09-02T21:25:29.636Z,24.39
2022-09-02T21:28:39.771Z,24.50
2022-09-02T21:31:49.213Z,24.57
2022-09-02T21:34:56.302Z,24.65
2022-09-02T21:38:03.744Z,24.70
2022-09-02T21:41:15.085Z,24.73
2022-09-02T21:44:31.546Z,24.78
2022-09-02T21:47:39.773Z,24.78
2022-09-02T21:50:49.359Z,24.77
2022-09-02T21:54:02.049Z,24.76
2022-09-02T21:57:34.376Z,24.76
2022-09-02T22:00:45.257Z,24.72
2022-09-02T22:03:51.933Z,24.74
2022-09-02T22:07:01.357Z,24.72
2022-09-02T22:10:13.329Z,24.76
2022-09-02T22:13:19.162Z,24.78
2022-09-02T22:16:39.387Z,24.71
2022-09-02T22:19:45.189Z,24.79
2022-09-02T22:22:53.473Z,24.75
2022-09-02T22:26:08.369Z,24.73
2022-09-02T22:29:18.218Z,24.65
2022-09-02T22:32:26.385Z,24.68
2022-09-02T22:35:34.464Z,24.67
2022-09-02T22:38:44.300Z,24.66
2022-09-02T22:41:56.707Z,24.61
2022-09-02T22:45:22.493Z,24.59
2022-09-02T22:48:52.937Z,24.61
2022-09-02T22:52:21.635Z,24.34
2022-09-02T22:55:31.404Z,24.40
2022-09-02T22:58:47.644Z,24.51
2022-09-02T23:01:58.397Z,24.62
2022-09-02T23:05:38.061Z,24.67
2022-09-02T23:08:43.819Z,24.73
2022-09-02T23:11:54.023Z,24.77
2022-09-02T23:15:08.942Z,24.73
2022-09-02T23:18:21.694Z,24.73
2022-09-02T23:21:37.279Z,24.66
2022-09-02T23:24:46.519Z,24.59
2022-09-02T23:27:54.511Z,24.58
2022-09-02T23:31:05.393Z,24.66
2022-09-02T23:34:18.390Z,24.52
2022-09-02T23:37:32.505Z,24.51
2022-09-02T23:40:41.604Z,24.26
2022-09-02T23:43:46.919Z,24.33
2022-09-02T23:46:57.508Z,24.31
2022-09-02T23:50:07.798Z,24.37
2022-09-02T23:53:20.701Z,24.30
2022-09-02T23:56:33.985Z,24.10
2022-09-02T23:59:48.451Z,24.20
